createdAt,value
2022-10-09T00:01:31.042Z,9.34
2022-10-09T00:04:00.884Z,9.33
2022-10-09T00:06:31.635Z,9.31
2022-10-09T00:09:01.823Z,9.29
2022-10-09T00:11:33.609Z,9.26
2022-10-09T00:14:03.530Z,9.22
2022-10-09T00:16:32.010Z,9.18
2022-10-09T00:19:00.543Z,9.13
2022-10-09T00:21:31.813Z,9.10
2022-10-09T00:24:03.406Z,9.08
2022-10-09T00:26:33.535Z,9.04
2022-10-09T00:29:01.881Z,8.98
2022-10-09T00:31:30.310Z,8.94
2022-10-09T00:33:58.672Z,8.91
2022-10-09T00:36:28.549Z,8.87
2022-10-09T00:38:57.194Z,8.86
2022-10-09T00:41:28.566Z,8.82
2022-10-09T00:44:00.424Z,8.77
2022-10-09T00:46:41.356Z,8.73
2022-10-09T00:49:18.928Z,8.71
2022-10-09T00:51:49.072Z,8.68
2022-10-09T00:54:25.318Z,8.63
2022-10-09T00:56:54.549Z,8.61
2022-10-09T00:59:24.988Z,8.60
2022-10-09T01:01:53.705Z,8.58
2022-10-09T01:04:22.082Z,8.56
2022-10-09T01:07:19.975Z,8.54
2022-10-09T01:09:56.865Z,8.51
2022-10-09T01:12:37.989Z,8.48
2022-10-09T01:15:17.909Z,8.44
2022-10-09T01:17:57.940Z,8.43
2022-10-09T01:20:43.228Z,8.40
2022-10-09T01:23:44.453Z,8.37
2022-10-09T01:26:34.417Z,8.35
2022-10-09T01:29:09.039Z,8.34
2022-10-09T01:31:41.805Z,8.34
2022-10-09T01:34:12.593Z,8.33
2022-10-09T01:36:41.742Z,8.33
2022-10-09T01:39:14.737Z,8.30
2022-10-09T01:41:43.640Z,8.29
2022-10-09T01:44:22.919Z,8.28
2022-10-09T01:46:51.618Z,8.27
2022-10-09T01:49:43.135Z,8.22
2022-10-09T01:52:27.968Z,8.18
2022-10-09T01:55:11.768Z,8.12
2022-10-09T01:57:49.216Z,8.08
2022-10-09T02:00:19.796Z,8.04
2022-10-09T02:02:49.084Z,8.01
2022-10-09T02:05:23.676Z,7.97
2022-10-09T02:07:52.849Z,7.94
2022-10-09T02:10:23.087Z,7.92
2022-10-09T02:12:56.292Z,7.89
2022-10-09T02:15:32.034Z,7.86
2022-10-09T02:18:09.005Z,7.83
2022-10-09T02:20:41.720Z,7.78
2022-10-09T02:23:11.325Z,7.75
2022-10-09T02:25:39.773Z,7.74
2022-10-09T02:28:09.241Z,7.73
2022-10-09T02:30:53.005Z,7.71
2022-10-09T02:33:31.359Z,7.69
2022-10-09T02:36:00.118Z,7.66
2022-10-09T02:38:29.044Z,7.62
2022-10-09T02:41:00.093Z,7.58
2022-10-09T02:43:29.265Z,7.55
2022-10-09T02:45:58.836Z,7.54
2022-10-09T02:48:27.123Z,7.54
2022-10-09T02:50:55.641Z,7.55
2022-10-09T02:53:23.930Z,7.53
2022-10-09T02:55:52.129Z,7.46
2022-10-09T02:58:20.409Z,7.40
2022-10-09T03:00:50.103Z,7.36
2022-10-09T03:03:20.818Z,7.34
2022-10-09T03:05:49.521Z,7.30
2022-10-09T03:08:17.728Z,7.29
2022-10-09T03:10:45.970Z,7.28
2022-10-09T03:13:14.537Z,7.27
2022-10-09T03:15:43.076Z,7.26
2022-10-09T03:18:11.647Z,7.25
2022-10-09T03:20:41.416Z,7.24
2022-10-09T03:23:09.633Z,7.22
2022-10-09T03:25:37.846Z,7.24
2022-10-09T03:28:06.158Z,7.26
2022-10-09T03:30:34.421Z,7.29
2022-10-09T03:33:03.155Z,7.29
2022-10-09T03:35:31.336Z,7.29
2022-10-09T03:38:00.856Z,7.29
2022-10-09T03:40:29.481Z,7.28
2022-10-09T03:42:57.894Z,7.27
2022-10-09T03:45:26.645Z,7.25
2022-10-09T03:47:56.541Z,7.25
2022-10-09T03:50:24.753Z,7.24
2022-10-09T03:52:53.011Z,7.25
2022-10-09T03:55:22.575Z,7.24
2022-10-09T03:57:50.773Z,7.24
2022-10-09T04:00:19.231Z,7.24
2022-10-09T04:02:47.883Z,7.25
2022-10-09T04:05:16.446Z,7.26
2022-10-09T04:07:45.025Z,7.24
2022-10-09T04:10:13.571Z,7.23
2022-10-09T04:12:43.243Z,7.22
2022-10-09T04:15:12.058Z,7.21
2022-10-09T04:17:40.300Z,7.21
2022-10-09T04:20:09.680Z,7.19
2022-10-09T04:22:37.854Z,7.18
2022-10-09T04:25:07.089Z,7.18
2022-10-09T04:27:35.579Z,7.16
2022-10-09T04:30:06.656Z,7.15
2022-10-09T04:32:34.913Z,7.14
2022-10-09T04:35:03.140Z,7.14
2022-10-09T04:37:31.375Z,7.14
2022-10-09T04:39:59.883Z,7.12
2022-10-09T04:42:28.073Z,7.09
2022-10-09T04:44:56.254Z,7.07
2022-10-09T04:47:25.922Z,7.04
2022-10-09T04:49:54.072Z,7.01
2022-10-09T04:52:22.559Z,6.99
2022-10-09T04:54:51.095Z,6.96
2022-10-09T04:57:19.735Z,6.93
2022-10-09T04:59:48.252Z,6.93
2022-10-09T05:02:16.813Z,6.91
2022-10-09T05:04:48.085Z,6.90
2022-10-09T05:07:16.623Z,6.86
2022-10-09T05:09:44.834Z,6.85
2022-10-09T05:12:13.428Z,6.83
2022-10-09T05:14:41.668Z,6.83
2022-10-09T05:17:14.211Z,6.83
2022-10-09T05:19:42.951Z,6.82
2022-10-09T05:22:12.854Z,6.80
2022-10-09T05:24:41.176Z,6.79
2022-10-09T05:27:09.584Z,6.77
2022-10-09T05:29:38.104Z,6.74
2022-10-09T05:32:06.402Z,6.74
2022-10-09T05:34:35.428Z,6.73
2022-10-09T05:37:03.946Z,6.72
2022-10-09T05:39:35.811Z,6.70
2022-10-09T05:42:04.532Z,6.70
2022-10-09T05:44:32.737Z,6.68
2022-10-09T05:47:01.017Z,6.68
2022-10-09T05:49:29.257Z,6.66
2022-10-09T05:51:57.525Z,6.66
2022-10-09T05:54:25.952Z,6.67
2022-10-09T05:56:55.550Z,6.67
2022-10-09T05:59:24.056Z,6.70
2022-10-09T06:01:54.777Z,6.74
2022-10-09T06:04:25.185Z,6.79
2022-10-09T06:06:53.792Z,6.84
2022-10-09T06:09:25.418Z,6.90
2022-10-09T06:11:56.038Z,6.98
2022-10-09T06:14:25.055Z,7.06
2022-10-09T06:16:53.677Z,7.17
2022-10-09T06:19:22.905Z,7.32
2022-10-09T06:21:51.849Z,7.47
2022-10-09T06:24:28.239Z,7.65
2022-10-09T06:26:59.346Z,7.83
2022-10-09T06:29:28.201Z,8.02
2022-10-09T06:31:56.725Z,8.18
2022-10-09T06:34:25.783Z,8.37
2022-10-09T06:36:53.996Z,8.57
2022-10-09T06:39:22.640Z,8.78
2022-10-09T06:41:51.207Z,8.98
2022-10-09T06:44:47.178Z,9.23
2022-10-09T06:47:15.389Z,9.44
2022-10-09T06:49:43.546Z,9.64
2022-10-09T06:52:11.824Z,9.87
2022-10-09T06:54:40.076Z,10.10
2022-10-09T06:57:08.593Z,10.32
2022-10-09T06:59:36.777Z,10.52
2022-10-09T07:02:06.495Z,10.74
2022-10-09T07:04:34.801Z,10.96
2022-10-09T07:07:03.164Z,11.24
2022-10-09T07:09:31.432Z,11.46
2022-10-09T07:11:59.652Z,11.66
2022-10-09T07:14:28.062Z,11.88
2022-10-09T07:16:56.230Z,12.14
2022-10-09T07:19:25.776Z,12.44
2022-10-09T07:21:54.068Z,12.71
2022-10-09T07:24:24.536Z,12.95
2022-10-09T07:26:55.314Z,13.30
2022-10-09T07:29:24.003Z,13.60
2022-10-09T07:31:52.199Z,13.92
2022-10-09T07:34:20.624Z,14.19
2022-10-09T07:36:50.183Z,14.49
2022-10-09T07:39:20.006Z,14.86
2022-10-09T07:41:51.524Z,15.22
2022-10-09T07:44:20.216Z,15.55
2022-10-09T07:46:50.328Z,15.81
2022-10-09T07:49:18.549Z,16.04
2022-10-09T07:51:46.938Z,16.35
2022-10-09T07:54:16.740Z,16.65
2022-10-09T07:56:45.205Z,16.97
2022-10-09T07:59:16.364Z,17.24
2022-10-09T08:01:44.673Z,17.48
2022-10-09T08:04:13.038Z,17.61
2022-10-09T08:06:41.371Z,17.81
2022-10-09T08:09:10.171Z,17.94
2022-10-09T08:11:41.038Z,18.03
2022-10-09T08:14:18.059Z,18.16
2022-10-09T08:16:47.975Z,18.24
2022-10-09T08:19:16.661Z,18.41
2022-10-09T08:21:44.944Z,18.62
2022-10-09T08:24:13.398Z,18.78
2022-10-09T08:26:44.214Z,18.91
2022-10-09T08:29:15.969Z,19.03
2022-10-09T08:31:44.356Z,19.22
2022-10-09T08:34:12.750Z,19.36
2022-10-09T08:36:41.524Z,19.48
2022-10-09T08:39:09.948Z,19.66
2022-10-09T08:41:48.237Z,19.92
2022-10-09T08:44:21.875Z,20.12
2022-10-09T08:47:06.142Z,20.29
2022-10-09T08:49:44.603Z,20.46
2022-10-09T08:52:29.570Z,20.59
2022-10-09T08:55:03.167Z,20.72
2022-10-09T08:57:35.341Z,20.91
2022-10-09T09:00:03.746Z,21.06
2022-10-09T09:02:59.000Z,21.26
2022-10-09T09:05:40.313Z,21.41
2022-10-09T09:08:23.069Z,21.57
2022-10-09T09:10:58.629Z,21.61
2022-10-09T09:13:46.652Z,21.76
2022-10-09T09:16:26.117Z,21.88
2022-10-09T09:19:33.865Z,21.97
2022-10-09T09:22:02.465Z,22.12
2022-10-09T09:24:43.304Z,22.28
2022-10-09T09:27:15.319Z,22.38
2022-10-09T09:29:49.952Z,22.48
2022-10-09T09:32:21.826Z,22.67
2022-10-09T09:34:50.304Z,22.70
2022-10-09T09:37:18.826Z,22.81
2022-10-09T09:42:35.832Z,23.22
2022-10-09T09:45:14.544Z,23.49
2022-10-09T09:47:47.938Z,23.74
2022-10-09T09:50:42.259Z,23.86
2022-10-09T09:53:12.482Z,24.05
2022-10-09T09:55:40.944Z,24.24
2022-10-09T09:58:15.800Z,24.45
2022-10-09T10:00:56.970Z,24.47
2022-10-09T10:03:27.384Z,24.47
2022-10-09T10:05:55.999Z,24.62
2022-10-09T10:08:27.744Z,24.76
2022-10-09T10:10:59.469Z,24.95
2022-10-09T10:13:35.783Z,25.14
2022-10-09T10:16:08.559Z,25.21
2022-10-09T10:18:42.122Z,25.40
2022-10-09T10:21:14.229Z,25.48
2022-10-09T10:23:46.424Z,25.53
2022-10-09T10:26:27.916Z,25.67
2022-10-09T10:29:03.420Z,25.77
2022-10-09T10:31:44.113Z,25.74
2022-10-09T10:34:22.152Z,25.47
2022-10-09T10:37:02.505Z,25.21
2022-10-09T10:39:41.317Z,25.01
2022-10-09T10:42:20.145Z,24.94
2022-10-09T10:44:56.728Z,24.96
2022-10-09T10:47:31.175Z,25.00
2022-10-09T10:49:59.581Z,24.88
2022-10-09T10:52:44.398Z,24.87
2022-10-09T10:55:30.271Z,24.98
2022-10-09T10:58:15.959Z,25.03
2022-10-09T11:00:58.569Z,24.97
2022-10-09T11:03:48.268Z,25.05
2022-10-09T11:06:28.817Z,25.19
2022-10-09T11:09:12.752Z,25.15
2022-10-09T11:11:49.800Z,25.24
2022-10-09T11:14:37.336Z,25.36
2022-10-09T11:17:22.906Z,25.13
2022-10-09T11:20:15.636Z,25.19
2022-10-09T11:23:06.726Z,25.36
2022-10-09T11:25:43.411Z,25.56
2022-10-09T11:28:19.513Z,25.55
2022-10-09T11:30:55.652Z,25.50
2022-10-09T11:33:33.877Z,25.51
2022-10-09T11:36:13.519Z,25.52
2022-10-09T11:38:47.492Z,25.77
2022-10-09T11:41:16.559Z,25.91
2022-10-09T11:44:01.796Z,26.15
2022-10-09T11:46:45.528Z,26.34
2022-10-09T11:49:24.985Z,26.41
2022-10-09T11:52:02.854Z,26.34
2022-10-09T11:54:31.921Z,26.26
2022-10-09T11:57:05.995Z,26.22
2022-10-09T11:59:37.286Z,26.47
2022-10-09T12:02:25.346Z,26.54
2022-10-09T12:04:55.748Z,26.56
2022-10-09T12:07:33.237Z,26.75
2022-10-09T12:10:08.175Z,26.77
2022-10-09T12:12:38.636Z,26.54
2022-10-09T12:15:27.120Z,26.48
2022-10-09T12:17:55.456Z,26.62
2022-10-09T12:20:26.879Z,26.68
2022-10-09T12:23:25.206Z,26.67
2022-10-09T12:25:50.843Z,26.63
2022-10-09T12:28:29.392Z,26.61
2022-10-09T12:31:00.696Z,26.29
2022-10-09T12:33:35.470Z,26.03
2022-10-09T12:36:12.765Z,26.23
2022-10-09T12:38:43.455Z,26.48
2022-10-09T12:41:20.880Z,26.86
2022-10-09T12:43:51.038Z,27.07
2022-10-09T12:46:30.156Z,27.19
2022-10-09T12:49:00.385Z,27.03
2022-10-09T12:51:32.310Z,26.92
2022-10-09T12:54:10.438Z,26.93
2022-10-09T12:56:40.141Z,27.09
2022-10-09T12:59:10.970Z,27.16
2022-10-09T13:01:41.169Z,27.02
2022-10-09T13:04:26.173Z,26.81
2022-10-09T13:06:54.871Z,26.71
2022-10-09T13:09:27.839Z,26.71
2022-10-09T13:12:00.540Z,26.83
2022-10-09T13:14:36.835Z,27.02
2022-10-09T13:17:05.220Z,27.26
2022-10-09T13:19:35.849Z,27.36
2022-10-09T13:22:18.814Z,27.37
2022-10-09T13:24:53.170Z,27.36
2022-10-09T13:27:22.349Z,27.41
2022-10-09T13:29:50.637Z,27.38
2022-10-09T13:32:19.744Z,27.21
2022-10-09T13:34:48.271Z,27.22
2022-10-09T13:37:20.086Z,27.21
2022-10-09T13:39:51.605Z,26.94
2022-10-09T13:42:20.724Z,26.80
2022-10-09T13:44:49.216Z,26.70
2022-10-09T13:47:20.763Z,26.52
2022-10-09T13:49:52.963Z,26.61
2022-10-09T13:52:21.219Z,26.72
2022-10-09T13:54:50.891Z,26.84
2022-10-09T13:57:19.452Z,26.94
2022-10-09T13:59:48.157Z,26.84
2022-10-09T14:02:16.792Z,26.85
2022-10-09T14:04:45.116Z,26.64
2022-10-09T14:07:13.679Z,26.45
2022-10-09T14:09:42.012Z,26.31
2022-10-09T14:12:11.656Z,26.22
2022-10-09T14:14:39.950Z,26.30
2022-10-09T14:17:08.496Z,26.24
2022-10-09T14:19:37.123Z,26.14
2022-10-09T14:22:05.636Z,25.99
2022-10-09T14:24:34.056Z,25.91
2022-10-09T14:27:02.287Z,25.91
2022-10-09T14:29:32.093Z,25.99
2022-10-09T14:32:00.329Z,26.01
2022-10-09T14:34:28.762Z,25.74
2022-10-09T14:36:57.013Z,25.53
2022-10-09T14:39:25.396Z,25.29
2022-10-09T14:41:53.623Z,25.04
2022-10-09T14:44:22.136Z,24.74
2022-10-09T14:46:51.669Z,24.52
2022-10-09T14:49:21.452Z,24.32
2022-10-09T14:51:49.674Z,24.20
2022-10-09T14:54:18.159Z,24.05
2022-10-09T14:56:46.336Z,23.76
2022-10-09T14:59:14.632Z,23.47
2022-10-09T15:01:43.122Z,23.17
2022-10-09T15:04:14.124Z,22.78
2022-10-09T15:06:42.778Z,22.48
2022-10-09T15:09:10.986Z,22.30
2022-10-09T15:11:39.293Z,22.10
2022-10-09T15:14:07.881Z,21.90
2022-10-09T15:16:36.527Z,21.66
2022-10-09T15:19:05.680Z,21.40
2022-10-09T15:21:36.958Z,21.25
2022-10-09T15:24:07.085Z,21.10
2022-10-09T15:26:37.256Z,20.99
2022-10-09T15:29:08.598Z,20.91
2022-10-09T15:31:39.388Z,20.81
2022-10-09T15:34:11.221Z,20.75
2022-10-09T15:36:43.077Z,20.67
2022-10-09T15:39:11.951Z,20.55
2022-10-09T15:41:42.796Z,20.42
2022-10-09T15:44:17.673Z,20.30
2022-10-09T15:46:47.290Z,20.22
2022-10-09T15:49:15.651Z,20.16
2022-10-09T15:51:45.384Z,20.09
2022-10-09T15:54:14.712Z,20.01
2022-10-09T15:56:43.224Z,19.93
2022-10-09T15:59:13.598Z,19.82
2022-10-09T16:01:41.852Z,19.70
2022-10-09T16:04:10.251Z,19.58
2022-10-09T16:06:39.212Z,19.49
2022-10-09T16:09:09.113Z,19.39
2022-10-09T16:11:37.367Z,19.28
2022-10-09T16:14:05.738Z,19.18
2022-10-09T16:16:34.620Z,19.07
2022-10-09T16:19:05.071Z,18.98
2022-10-09T16:21:34.066Z,18.88
2022-10-09T16:24:02.497Z,18.79
2022-10-09T16:26:32.182Z,18.68
2022-10-09T16:29:01.595Z,18.59
2022-10-09T16:31:34.651Z,18.48
2022-10-09T16:34:03.866Z,18.37
2022-10-09T16:36:32.467Z,18.24
2022-10-09T16:39:00.800Z,18.14
2022-10-09T16:41:29.040Z,18.05
2022-10-09T16:44:00.151Z,17.96
2022-10-09T16:46:31.556Z,17.86
2022-10-09T16:49:02.684Z,17.74
2022-10-09T16:51:33.453Z,17.64
2022-10-09T16:54:04.688Z,17.53
2022-10-09T16:56:36.620Z,17.43
2022-10-09T16:59:08.860Z,17.34
2022-10-09T17:01:40.242Z,17.24
2022-10-09T17:04:08.496Z,17.13
2022-10-09T17:06:36.984Z,17.04
2022-10-09T17:09:13.726Z,16.92
2022-10-09T17:11:42.683Z,16.81
2022-10-09T17:14:12.923Z,16.71
2022-10-09T17:16:43.589Z,16.61
2022-10-09T17:19:11.966Z,16.52
2022-10-09T17:21:40.348Z,16.40
2022-10-09T17:24:08.856Z,16.33
2022-10-09T17:26:37.571Z,16.25
2022-10-09T17:29:07.381Z,16.17
2022-10-09T17:31:36.963Z,16.08
2022-10-09T17:34:06.573Z,16.00
2022-10-09T17:36:39.875Z,15.92
2022-10-09T17:39:12.085Z,15.83
2022-10-09T17:41:40.489Z,15.76
2022-10-09T17:44:09.635Z,15.67
2022-10-09T17:46:39.336Z,15.60
2022-10-09T17:49:07.841Z,15.52
2022-10-09T17:51:39.514Z,15.45
2022-10-09T17:54:12.013Z,15.39
2022-10-09T17:56:41.358Z,15.33
2022-10-09T17:59:10.142Z,15.25
2022-10-09T18:01:39.963Z,15.18
2022-10-09T18:04:08.302Z,15.13
2022-10-09T18:06:36.932Z,15.05
2022-10-09T18:09:05.864Z,15.00
2022-10-09T18:11:34.148Z,14.97
2022-10-09T18:14:03.764Z,14.91
2022-10-09T18:16:38.009Z,14.83
2022-10-09T18:19:11.439Z,14.76
2022-10-09T18:21:41.704Z,14.65
2022-10-09T18:24:10.260Z,14.57
2022-10-09T18:26:38.956Z,14.47
2022-10-09T18:29:07.556Z,14.35
2022-10-09T18:31:36.660Z,14.24
2022-10-09T18:34:04.904Z,14.13
2022-10-09T18:36:34.947Z,14.02
2022-10-09T18:39:06.830Z,13.93
2022-10-09T18:41:38.074Z,13.85
2022-10-09T18:44:12.094Z,13.77
2022-10-09T18:46:45.951Z,13.72
2022-10-09T18:49:18.642Z,13.65
2022-10-09T18:51:49.414Z,13.58
2022-10-09T18:54:19.349Z,13.53
2022-10-09T18:56:48.200Z,13.48
2022-10-09T18:59:20.368Z,13.43
2022-10-09T19:01:48.940Z,13.40
2022-10-09T19:04:18.883Z,13.37
2022-10-09T19:06:48.864Z,13.35
2022-10-09T19:09:17.494Z,13.31
2022-10-09T19:11:45.840Z,13.27
2022-10-09T19:14:15.793Z,13.22
2022-10-09T19:16:44.041Z,13.19
2022-10-09T19:19:12.602Z,13.13
2022-10-09T19:21:44.042Z,13.07
2022-10-09T19:24:14.740Z,13.04
2022-10-09T19:26:43.108Z,13.00
2022-10-09T19:29:11.940Z,12.96
2022-10-09T19:31:40.151Z,12.93
2022-10-09T19:34:08.764Z,12.91
2022-10-09T19:36:37.563Z,12.89
2022-10-09T19:39:06.393Z,12.87
2022-10-09T19:41:36.417Z,12.83
2022-10-09T19:44:04.613Z,12.79
2022-10-09T19:46:32.815Z,12.76
2022-10-09T19:49:01.861Z,12.73
2022-10-09T19:51:30.184Z,12.70
2022-10-09T19:53:59.075Z,12.65
2022-10-09T19:56:30.467Z,12.59
2022-10-09T19:59:02.796Z,12.54
2022-10-09T20:01:32.834Z,12.51
2022-10-09T20:04:04.147Z,12.49
2022-10-09T20:06:32.621Z,12.47
2022-10-09T20:09:00.808Z,12.44
2022-10-09T20:11:29.135Z,12.43
2022-10-09T20:13:57.680Z,12.44
2022-10-09T20:16:31.925Z,12.44
2022-10-09T20:19:00.947Z,12.43
2022-10-09T20:21:31.737Z,12.42
2022-10-09T20:24:01.620Z,12.40
2022-10-09T20:26:31.393Z,12.38
2022-10-09T20:29:00.042Z,12.34
2022-10-09T20:31:31.065Z,12.31
2022-10-09T20:33:59.933Z,12.28
2022-10-09T20:36:31.497Z,12.24
2022-10-09T20:39:02.502Z,12.23
2022-10-09T20:41:32.057Z,12.22
2022-10-09T20:44:02.785Z,12.20
2022-10-09T20:46:35.092Z,12.19
2022-10-09T20:49:06.054Z,12.18
2022-10-09T20:51:36.866Z,12.16
2022-10-09T20:54:07.062Z,12.15
2022-10-09T20:56:36.551Z,12.12
2022-10-09T20:59:05.095Z,12.09
2022-10-09T21:01:36.739Z,12.08
2022-10-09T21:04:05.609Z,12.09
2022-10-09T21:06:36.012Z,12.08
2022-10-09T21:09:04.973Z,12.06
2022-10-09T21:11:34.762Z,12.02
2022-10-09T21:14:03.766Z,12.00
2022-10-09T21:16:33.699Z,11.99
2022-10-09T21:19:05.142Z,11.98
2022-10-09T21:21:34.711Z,11.95
2022-10-09T21:24:03.168Z,11.92
2022-10-09T21:26:35.740Z,11.94
2022-10-09T21:29:04.943Z,11.93
2022-10-09T21:31:35.118Z,11.94
2022-10-09T21:34:03.384Z,11.94
2022-10-09T21:36:56.215Z,11.91
2022-10-09T21:39:29.723Z,11.91
2022-10-09T21:41:58.117Z,11.87
2022-10-09T21:44:27.513Z,11.84
2022-10-09T21:46:57.154Z,11.79
2022-10-09T21:49:27.935Z,11.75
2022-10-09T21:51:56.664Z,11.69
2022-10-09T21:54:25.133Z,11.64
2022-10-09T21:56:53.670Z,11.58
2022-10-09T21:59:21.948Z,11.53
2022-10-09T22:01:50.124Z,11.46
2022-10-09T22:04:19.718Z,11.40
2022-10-09T22:06:48.335Z,11.37
2022-10-09T22:09:16.832Z,11.32
2022-10-09T22:11:45.396Z,11.30
2022-10-09T22:14:13.747Z,11.27
2022-10-09T22:16:42.246Z,11.24
2022-10-09T22:19:10.784Z,11.20
2022-10-09T22:21:40.336Z,11.14
2022-10-09T22:24:08.557Z,11.08
2022-10-09T22:26:37.500Z,11.04
2022-10-09T22:29:06.007Z,11.01
2022-10-09T22:31:34.616Z,10.96
2022-10-09T22:34:03.725Z,10.93
2022-10-09T22:36:33.999Z,10.90
2022-10-09T22:39:07.339Z,10.88
2022-10-09T22:41:36.432Z,10.86
2022-10-09T22:44:07.533Z,10.85
2022-10-09T22:46:39.037Z,10.83
2022-10-09T22:49:11.300Z,10.79
2022-10-09T22:51:39.720Z,10.76
2022-10-09T22:54:09.532Z,10.75
2022-10-09T22:56:41.484Z,10.75
2022-10-09T22:59:11.737Z,10.74
2022-10-09T23:01:45.366Z,10.73
2022-10-09T23:04:15.777Z,10.69
2022-10-09T23:06:45.473Z,10.65
2022-10-09T23:09:16.097Z,10.61
2022-10-09T23:11:44.861Z,10.59
2022-10-09T23:14:13.966Z,10.57
2022-10-09T23:16:42.844Z,10.55
2022-10-09T23:19:11.809Z,10.53
2022-10-09T23:21:43.118Z,10.48
2022-10-09T23:24:17.855Z,10.45
2022-10-09T23:26:47.513Z,10.40
2022-10-09T23:29:18.600Z,10.35
2022-10-09T23:31:48.464Z,10.33
2022-10-09T23:34:17.015Z,10.30
2022-10-09T23:36:45.499Z,10.28
2022-10-09T23:39:15.354Z,10.26
2022-10-09T23:41:43.923Z,10.22
2022-10-09T23:44:12.124Z,10.20
2022-10-09T23:46:40.408Z,10.19
2022-10-09T23:49:08.647Z,10.16
2022-10-09T23:51:37.936Z,10.13
2022-10-09T23:54:07.105Z,10.12
2022-10-09T23:56:38.107Z,10.11
2022-10-09T23:59:07.698Z,10.07
